Juan Dias, Panama
Current Conditions -  °F | °C
As of 12:00 PM on Friday 21 Nov 2014 (Local Time) from MPMG Reporting Station
Scattered Clouds Scattered Clouds  
Wind Chill: 88°   Ceiling: Unl
Heat Index: 96°   Visibility: 6mi
Dew Point: 73°   Wind: 5mph
Humidity: 62%   Direction: 150°SSE
Pressure: 29.88"   Gusts: NA
Location:  8.97°N, 79.51°W
Report Text: MPMG 211700Z 15004KT 9999 SCT018TCU 31/23 Q1012 NOSIG
Loading
Personal Weather Stations






























Interactive Weather Map New forecast layout! Learn more

10-Day Weather Forecast

Advertisements
Track Severe Weather on mobile